createdAt,value
2023-05-09T05:01:15.089Z,500.00
2023-05-09T05:02:14.924Z,500.00
2023-05-09T05:03:14.923Z,500.00
2023-05-09T05:04:14.927Z,500.00
2023-05-09T05:05:14.916Z,500.00
2023-05-09T05:06:14.877Z,500.00
2023-05-09T05:07:14.892Z,400.00
2023-05-09T05:08:14.885Z,400.00
2023-05-09T05:09:14.881Z,400.00
2023-05-09T05:10:14.870Z,400.00
2023-05-09T05:11:14.861Z,400.00
2023-05-09T05:12:14.850Z,400.00
2023-05-09T05:13:14.886Z,400.00
2023-05-09T05:14:14.817Z,400.00
2023-05-09T05:15:15.145Z,400.00
2023-05-09T05:16:14.882Z,400.00
2023-05-09T05:17:14.870Z,400.00
2023-05-09T05:18:14.802Z,400.00
2023-05-09T05:19:14.820Z,400.00
2023-05-09T05:20:14.808Z,400.00
2023-05-09T05:21:14.795Z,400.00
2023-05-09T05:22:14.781Z,400.00
2023-05-09T05:23:14.784Z,400.00
2023-05-09T05:24:14.788Z,400.00
2023-05-09T05:25:15.121Z,400.00
2023-05-09T05:26:14.769Z,400.00
2023-05-09T05:27:14.824Z,400.00
2023-05-09T05:28:14.837Z,400.00
2023-05-09T05:29:14.913Z,400.00
2023-05-09T05:30:14.973Z,400.00
2023-05-09T05:31:15.006Z,428.00
2023-05-09T05:32:15.060Z,468.00
2023-05-09T05:33:15.175Z,500.00
2023-05-09T05:34:15.123Z,500.00
2023-05-09T05:35:15.350Z,499.00
2023-05-09T05:36:15.193Z,500.00
2023-05-09T05:37:15.234Z,502.00
2023-05-09T05:38:15.274Z,505.00
2023-05-09T05:39:15.288Z,500.00
2023-05-09T05:40:15.327Z,501.00
2023-05-09T05:41:15.385Z,497.00
2023-05-09T05:42:15.414Z,506.00
2023-05-09T05:43:15.480Z,500.00
2023-05-09T05:44:15.553Z,502.00
2023-05-09T05:45:15.830Z,506.00
2023-05-09T05:46:15.614Z,501.00
2023-05-09T05:47:15.674Z,501.00
2023-05-09T05:48:15.646Z,501.00
2023-05-09T05:49:15.742Z,504.00
2023-05-09T05:50:15.706Z,507.00
2023-05-09T05:51:15.717Z,500.00
2023-05-09T05:52:15.741Z,511.00
2023-05-09T05:53:15.769Z,502.00
2023-05-09T05:54:15.790Z,500.00
2023-05-09T05:55:16.134Z,502.00
2023-05-09T05:56:15.888Z,500.00
2023-05-09T05:57:15.934Z,510.00
2023-05-09T05:58:15.948Z,504.00
2023-05-09T05:59:16.008Z,506.00
2023-05-09T06:00:16.070Z,504.00
2023-05-09T06:01:16.087Z,501.00
2023-05-09T06:02:16.262Z,504.00
2023-05-09T06:03:16.325Z,516.00
2023-05-09T06:04:16.380Z,506.00
2023-05-09T06:05:16.679Z,500.00
2023-05-09T06:06:16.412Z,514.00
2023-05-09T06:07:16.431Z,515.00
2023-05-09T06:08:16.507Z,515.00
2023-05-09T06:09:16.543Z,516.00
2023-05-09T06:10:16.584Z,517.00
2023-05-09T06:11:16.644Z,510.00
2023-05-09T06:12:16.681Z,511.00
2023-05-09T06:13:16.823Z,512.00
2023-05-09T06:14:16.786Z,509.00
2023-05-09T06:15:17.076Z,514.00
2023-05-09T06:16:19.992Z,510.00
2023-05-09T06:17:17.047Z,514.00
2023-05-09T06:18:16.926Z,517.00
2023-05-09T06:19:16.911Z,516.00
2023-05-09T06:20:16.904Z,516.00
2023-05-09T06:21:17.022Z,517.00
2023-05-09T06:22:16.906Z,520.00
2023-05-09T06:23:16.881Z,535.00
2023-05-09T06:24:27.507Z,534.00
2023-05-09T06:25:17.905Z,535.00
2023-05-09T06:26:16.886Z,536.00
2023-05-09T06:27:16.823Z,531.00
2023-05-09T06:28:16.834Z,522.00
2023-05-09T06:29:16.878Z,511.00
2023-05-09T06:30:26.248Z,516.00
2023-05-09T06:31:17.832Z,517.00
2023-05-09T06:32:16.810Z,516.00
2023-05-09T06:33:16.803Z,509.00
2023-05-09T06:34:16.807Z,511.00
2023-05-09T06:35:16.872Z,502.00
2023-05-09T06:36:16.798Z,502.00
2023-05-09T06:37:16.787Z,502.00
2023-05-09T06:38:16.761Z,515.00
2023-05-09T06:39:16.770Z,502.00
2023-05-09T06:40:16.962Z,502.00
2023-05-09T06:41:16.754Z,510.00
2023-05-09T06:42:16.788Z,504.00
2023-05-09T06:43:16.732Z,507.00
2023-05-09T06:44:16.734Z,506.00
2023-05-09T06:45:16.997Z,506.00
2023-05-09T06:46:16.833Z,499.00
2023-05-09T06:47:16.786Z,510.00
2023-05-09T06:48:16.850Z,525.00
2023-05-09T06:49:16.805Z,533.00
2023-05-09T06:50:16.862Z,534.00
2023-05-09T06:51:16.859Z,531.00
2023-05-09T06:52:16.932Z,535.00
2023-05-09T06:53:16.921Z,529.00
2023-05-09T06:54:16.901Z,529.00
2023-05-09T06:55:17.109Z,525.00
2023-05-09T06:56:18.392Z,520.00
2023-05-09T06:57:16.968Z,517.00
2023-05-09T06:58:16.996Z,513.00
2023-05-09T06:59:16.951Z,517.00
2023-05-09T07:00:16.931Z,529.00
2023-05-09T07:01:16.948Z,527.00
2023-05-09T07:02:16.933Z,524.00
2023-05-09T07:03:16.920Z,532.00
2023-05-09T07:04:16.961Z,528.00
2023-05-09T07:05:17.106Z,527.00
2023-05-09T07:06:16.913Z,517.00
2023-05-09T07:07:16.903Z,506.00
2023-05-09T07:08:16.913Z,514.00
2023-05-09T07:09:16.969Z,501.00
2023-05-09T07:10:16.856Z,509.00
2023-05-09T07:11:16.856Z,512.00
2023-05-09T07:12:16.829Z,525.00
2023-05-09T07:13:16.923Z,541.00
2023-05-09T07:14:16.839Z,533.00
2023-05-09T07:15:25.593Z,532.00
2023-05-09T07:16:17.909Z,533.00
2023-05-09T07:17:23.303Z,534.00
2023-05-09T07:18:17.808Z,533.00
2023-05-09T07:19:16.825Z,533.00
2023-05-09T07:20:16.813Z,534.00
2023-05-09T07:21:16.797Z,542.00
2023-05-09T07:22:16.818Z,545.00
2023-05-09T07:23:16.812Z,544.00
2023-05-09T07:24:16.834Z,541.00
2023-05-09T07:25:17.048Z,541.00
2023-05-09T07:26:16.828Z,550.00
2023-05-09T07:27:16.824Z,552.00
2023-05-09T07:28:16.850Z,559.00
2023-05-09T07:29:16.961Z,560.00
2023-05-09T07:30:17.167Z,510.00
2023-05-09T07:31:17.039Z,503.00
2023-05-09T07:32:17.107Z,500.00
2023-05-09T07:33:17.023Z,530.00
2023-05-09T07:34:17.108Z,555.00
2023-05-09T07:35:17.093Z,549.00
2023-05-09T07:36:17.095Z,515.00
2023-05-09T07:37:17.241Z,524.00
2023-05-09T07:38:17.178Z,546.00
2023-05-09T07:39:17.247Z,556.00
2023-05-09T07:40:17.552Z,576.00
2023-05-09T07:41:17.423Z,574.00
2023-05-09T07:42:17.369Z,567.00
2023-05-09T07:43:17.373Z,575.00
2023-05-09T07:44:17.381Z,591.00
2023-05-09T07:45:18.371Z,602.00
2023-05-09T07:46:17.480Z,627.00
2023-05-09T07:47:17.520Z,654.00
2023-05-09T07:48:17.515Z,655.00
2023-05-09T07:49:17.528Z,661.00
2023-05-09T07:50:17.621Z,647.00
2023-05-09T07:51:17.612Z,635.00
2023-05-09T07:52:17.576Z,631.00
2023-05-09T07:53:17.595Z,622.00
2023-05-09T07:54:17.689Z,599.00
2023-05-09T07:55:18.015Z,608.00
2023-05-09T07:56:17.806Z,611.00
2023-05-09T07:57:18.067Z,600.00
2023-05-09T07:58:17.929Z,594.00
2023-05-09T07:59:17.944Z,609.00
2023-05-09T08:00:18.014Z,609.00
2023-05-09T08:01:18.052Z,604.00
2023-05-09T08:02:18.208Z,601.00
2023-05-09T08:03:18.459Z,591.00
2023-05-09T08:04:18.281Z,586.00
2023-05-09T08:05:18.362Z,573.00
2023-05-09T08:06:18.376Z,571.00
2023-05-09T08:07:18.355Z,578.00
2023-05-09T08:08:18.395Z,613.00
2023-05-09T08:09:18.408Z,622.00
2023-05-09T08:10:18.458Z,639.00
2023-05-09T08:11:18.498Z,643.00
2023-05-09T08:12:18.474Z,651.00
2023-05-09T08:13:18.678Z,642.00
2023-05-09T08:14:18.473Z,638.00
2023-05-09T08:15:18.461Z,635.00
2023-05-09T08:16:18.550Z,641.00
2023-05-09T08:17:18.659Z,644.00
2023-05-09T08:18:18.739Z,639.00
2023-05-09T08:19:18.820Z,632.00
2023-05-09T08:20:18.935Z,630.00
2023-05-09T08:21:20.243Z,626.00
2023-05-09T08:22:18.966Z,625.00
2023-05-09T08:23:18.991Z,627.00
2023-05-09T08:24:18.961Z,632.00
2023-05-09T08:25:19.003Z,628.00
2023-05-09T08:26:18.985Z,616.00
2023-05-09T08:27:18.956Z,603.00
2023-05-09T08:28:18.940Z,611.00
2023-05-09T08:29:19.010Z,612.00
2023-05-09T08:30:18.909Z,635.00
2023-05-09T08:31:19.047Z,629.00
2023-05-09T08:32:18.964Z,643.00
2023-05-09T08:33:18.919Z,643.00
2023-05-09T08:34:18.933Z,629.00
2023-05-09T08:35:18.882Z,642.00
2023-05-09T08:36:19.106Z,657.00
2023-05-09T08:37:18.883Z,666.00
2023-05-09T08:38:18.916Z,702.00
2023-05-09T08:39:18.872Z,724.00
2023-05-09T08:40:18.891Z,720.00
2023-05-09T08:41:18.877Z,737.00
2023-05-09T08:42:18.897Z,752.00
2023-05-09T08:43:18.858Z,785.00
2023-05-09T08:44:18.833Z,810.00
2023-05-09T08:45:18.913Z,834.00
2023-05-09T08:46:18.835Z,832.00
2023-05-09T08:47:18.807Z,851.00
2023-05-09T08:48:18.843Z,862.00
2023-05-09T08:49:18.812Z,868.00
2023-05-09T08:50:18.998Z,884.00
2023-05-09T08:51:18.795Z,857.00
2023-05-09T08:52:18.810Z,859.00
2023-05-09T08:53:18.743Z,895.00
2023-05-09T08:54:20.671Z,905.00
2023-05-09T08:55:18.768Z,906.00
2023-05-09T08:56:18.725Z,909.00
2023-05-09T08:57:18.712Z,914.00
2023-05-09T08:58:18.723Z,935.00
2023-05-09T08:59:18.746Z,1011.00
2023-05-09T09:00:20.610Z,1020.00
2023-05-09T09:01:18.912Z,1021.00
2023-05-09T09:02:18.745Z,971.00
2023-05-09T09:03:18.717Z,1021.00
2023-05-09T09:04:18.715Z,973.00
2023-05-09T09:05:39.582Z,927.00
2023-05-09T09:06:19.693Z,1004.00
2023-05-09T09:07:18.682Z,957.00
2023-05-09T09:08:18.755Z,958.00
2023-05-09T09:09:18.668Z,1006.00
2023-05-09T09:10:18.679Z,922.00
2023-05-09T09:11:18.802Z,839.00
2023-05-09T09:12:18.615Z,848.00
2023-05-09T09:13:18.725Z,933.00
2023-05-09T09:14:18.627Z,890.00
2023-05-09T09:15:18.614Z,809.00
2023-05-09T09:16:18.687Z,744.00
2023-05-09T09:17:18.712Z,710.00
2023-05-09T09:18:18.616Z,719.00
2023-05-09T09:19:18.604Z,682.00
2023-05-09T09:20:18.600Z,780.00
2023-05-09T09:21:18.628Z,774.00
2023-05-09T09:22:18.649Z,734.00
2023-05-09T09:23:18.628Z,662.00
2023-05-09T09:24:18.706Z,678.00
2023-05-09T09:25:18.678Z,637.00
2023-05-09T09:26:18.749Z,622.00
2023-05-09T09:27:18.841Z,606.00
2023-05-09T09:28:18.848Z,590.00
2023-05-09T09:29:18.863Z,598.00
2023-05-09T09:30:18.930Z,617.00
2023-05-09T09:31:19.005Z,491.00
2023-05-09T09:32:19.165Z,461.00
2023-05-09T09:33:19.156Z,455.00
2023-05-09T09:34:19.135Z,480.00
2023-05-09T09:35:19.219Z,527.00
2023-05-09T09:36:19.281Z,503.00
2023-05-09T09:37:19.335Z,492.00
2023-05-09T09:38:19.379Z,624.00
2023-05-09T09:39:19.400Z,656.00
2023-05-09T09:40:19.454Z,612.00
2023-05-09T09:41:19.466Z,550.00
2023-05-09T09:42:19.484Z,536.00
2023-05-09T09:43:19.581Z,498.00
2023-05-09T09:44:19.577Z,486.00
2023-05-09T09:45:19.574Z,506.00
2023-05-09T09:46:19.645Z,584.00
2023-05-09T09:47:19.570Z,553.00
2023-05-09T09:48:19.548Z,541.00
2023-05-09T09:49:19.646Z,509.00
2023-05-09T09:50:19.695Z,500.00
2023-05-09T09:51:19.618Z,505.00
2023-05-09T09:52:19.555Z,502.00
2023-05-09T09:53:19.661Z,506.00
2023-05-09T09:54:19.635Z,513.00
2023-05-09T09:55:19.668Z,512.00
2023-05-09T09:56:19.695Z,526.00
2023-05-09T09:57:19.701Z,523.00
2023-05-09T09:58:19.739Z,565.00
2023-05-09T09:59:19.766Z,552.00
2023-05-09T10:00:19.839Z,512.00
2023-05-09T10:01:19.847Z,509.00
2023-05-09T10:02:19.734Z,596.00
2023-05-09T10:03:19.853Z,640.00
2023-05-09T10:04:19.760Z,609.00
2023-05-09T10:05:19.859Z,584.00
2023-05-09T10:06:19.755Z,588.00
2023-05-09T10:07:19.797Z,560.00
2023-05-09T10:08:19.780Z,522.00
2023-05-09T10:09:19.811Z,540.00
2023-05-09T10:10:19.908Z,542.00
2023-05-09T10:11:19.927Z,506.00
2023-05-09T10:12:19.974Z,503.00
2023-05-09T10:13:20.005Z,532.00
2023-05-09T10:14:20.010Z,542.00
2023-05-09T10:15:20.038Z,580.00
2023-05-09T10:16:28.528Z,600.00
2023-05-09T10:17:21.184Z,603.00
2023-05-09T10:18:20.392Z,611.00
2023-05-09T10:19:20.065Z,618.00
2023-05-09T10:20:20.053Z,637.00
2023-05-09T10:21:20.112Z,663.00
2023-05-09T10:22:20.056Z,702.00
2023-05-09T10:23:20.045Z,632.00
2023-05-09T10:24:20.020Z,788.00
2023-05-09T10:25:20.006Z,799.00
2023-05-09T10:26:20.003Z,577.00
2023-05-09T10:27:20.018Z,567.00
2023-05-09T10:28:20.013Z,586.00
2023-05-09T10:29:19.990Z,589.00
2023-05-09T10:30:19.986Z,532.00
2023-05-09T10:31:20.005Z,626.00
2023-05-09T10:32:19.956Z,662.00
2023-05-09T10:33:19.924Z,674.00
2023-05-09T10:34:19.955Z,556.00
2023-05-09T10:35:19.943Z,480.00
2023-05-09T10:36:19.943Z,550.00
2023-05-09T10:37:20.009Z,622.00
2023-05-09T10:38:19.927Z,664.00
2023-05-09T10:39:19.899Z,645.00
2023-05-09T10:40:19.897Z,590.00
2023-05-09T10:41:19.876Z,560.00
2023-05-09T10:42:19.922Z,555.00
2023-05-09T10:43:19.867Z,549.00
2023-05-09T10:44:19.893Z,587.00
2023-05-09T10:45:19.861Z,600.00
2023-05-09T10:46:19.875Z,546.00
2023-05-09T10:47:19.943Z,490.00
2023-05-09T10:48:19.884Z,499.00
2023-05-09T10:49:19.886Z,518.00
2023-05-09T10:50:19.943Z,581.00
2023-05-09T10:51:19.874Z,625.00
2023-05-09T10:52:19.888Z,654.00
2023-05-09T10:53:19.960Z,721.00
2023-05-09T10:54:19.927Z,815.00
2023-05-09T10:55:19.920Z,783.00
2023-05-09T10:56:19.971Z,861.00
2023-05-09T10:57:20.022Z,886.00
2023-05-09T10:58:20.087Z,951.00
2023-05-09T10:59:20.159Z,1003.00
2023-05-09T11:00:20.205Z,1003.00
2023-05-09T11:01:20.268Z,1041.00
2023-05-09T11:02:20.272Z,1026.00
2023-05-09T11:03:20.418Z,766.00
2023-05-09T11:04:20.416Z,675.00
2023-05-09T11:05:20.428Z,614.00
2023-05-09T11:06:20.461Z,526.00
2023-05-09T11:07:20.516Z,494.00
2023-05-09T11:08:20.581Z,557.00
2023-05-09T11:09:20.721Z,664.00
2023-05-09T11:10:20.708Z,902.00
2023-05-09T11:11:20.738Z,1022.00
2023-05-09T11:12:20.777Z,984.00
2023-05-09T11:13:20.892Z,969.00
2023-05-09T11:14:20.868Z,960.00
2023-05-09T11:15:20.895Z,925.00
2023-05-09T11:16:20.968Z,959.00
2023-05-09T11:17:21.008Z,1023.00
2023-05-09T11:18:21.031Z,1152.00
2023-05-09T11:19:21.039Z,1254.00
2023-05-09T11:20:21.056Z,1289.00
2023-05-09T11:21:21.103Z,1265.00
2023-05-09T11:22:21.094Z,1335.00
2023-05-09T11:23:21.146Z,1423.00
2023-05-09T11:24:21.141Z,1429.00
2023-05-09T11:25:21.224Z,1466.00
2023-05-09T11:26:21.153Z,1489.00
2023-05-09T11:27:21.215Z,1560.00
2023-05-09T11:28:21.160Z,1542.00
2023-05-09T11:29:21.156Z,1591.00
2023-05-09T11:30:21.170Z,1649.00
2023-05-09T11:31:21.206Z,1677.00
2023-05-09T11:32:21.193Z,1708.00
2023-05-09T11:33:21.127Z,1762.00
2023-05-09T11:34:21.222Z,1738.00
2023-05-09T11:35:21.192Z,1752.00
2023-05-09T11:36:21.207Z,1754.00
2023-05-09T11:37:21.191Z,1751.00
2023-05-09T11:38:21.233Z,1781.00
2023-05-09T11:39:21.225Z,1573.00
2023-05-09T11:40:21.273Z,896.00
2023-05-09T11:41:21.307Z,616.00
2023-05-09T11:42:21.190Z,581.00
2023-05-09T11:43:21.211Z,629.00
2023-05-09T11:44:21.262Z,622.00
2023-05-09T11:45:21.230Z,1060.00
2023-05-09T11:46:21.255Z,956.00
2023-05-09T11:47:21.339Z,1209.00
2023-05-09T11:48:21.246Z,1248.00
2023-05-09T11:49:21.283Z,1435.00
2023-05-09T11:50:21.324Z,1516.00
2023-05-09T11:51:21.392Z,1568.00
2023-05-09T11:52:21.435Z,1667.00
2023-05-09T11:53:21.503Z,1689.00
2023-05-09T11:54:21.577Z,1687.00
2023-05-09T11:55:21.637Z,1698.00
2023-05-09T11:56:21.671Z,1675.00
2023-05-09T11:57:21.857Z,1543.00
2023-05-09T11:58:21.815Z,1545.00
2023-05-09T11:59:21.855Z,1662.00
2023-05-09T12:00:21.952Z,1691.00
2023-05-09T12:01:22.013Z,1700.00
2023-05-09T12:02:22.089Z,1754.00
2023-05-09T12:03:22.219Z,1745.00
2023-05-09T12:04:22.190Z,1797.00
2023-05-09T12:05:22.217Z,1786.00
2023-05-09T12:06:22.312Z,1858.00
2023-05-09T12:07:22.309Z,1813.00
2023-05-09T12:08:22.364Z,1815.00
2023-05-09T12:09:22.420Z,1813.00
2023-05-09T12:10:22.454Z,1762.00
2023-05-09T12:11:22.529Z,1691.00
2023-05-09T12:12:22.651Z,1617.00
2023-05-09T12:13:22.796Z,1580.00
2023-05-09T12:14:22.708Z,1343.00
2023-05-09T12:15:22.801Z,1350.00
2023-05-09T12:16:22.898Z,1433.00
2023-05-09T12:17:22.981Z,1387.00
2023-05-09T12:18:22.936Z,1244.00
2023-05-09T12:19:22.997Z,1251.00
2023-05-09T12:20:23.062Z,1111.00
2023-05-09T12:21:23.155Z,1062.00
2023-05-09T12:22:23.150Z,1083.00
2023-05-09T12:23:23.216Z,1002.00
2023-05-09T12:24:23.270Z,834.00
2023-05-09T12:25:23.385Z,723.00
2023-05-09T12:26:23.415Z,762.00
2023-05-09T12:27:23.454Z,686.00
2023-05-09T12:28:23.489Z,671.00
2023-05-09T12:29:23.687Z,708.00
2023-05-09T12:30:23.620Z,721.00
2023-05-09T12:31:23.732Z,841.00
2023-05-09T12:32:23.773Z,936.00
2023-05-09T12:33:23.849Z,957.00
2023-05-09T12:34:23.848Z,1063.00
2023-05-09T12:35:23.944Z,1139.00
2023-05-09T12:36:23.988Z,1169.00
2023-05-09T12:37:24.028Z,1172.00
2023-05-09T12:38:24.130Z,1169.00
2023-05-09T12:39:24.133Z,1172.00
2023-05-09T12:40:24.258Z,1189.00
2023-05-09T12:41:36.883Z,1180.00
2023-05-09T12:42:25.249Z,1159.00
2023-05-09T12:43:24.248Z,1177.00
2023-05-09T12:44:24.250Z,1183.00
2023-05-09T12:45:24.308Z,1144.00
2023-05-09T12:46:24.351Z,1135.00
2023-05-09T12:47:24.278Z,1148.00
2023-05-09T12:48:24.241Z,938.00
2023-05-09T12:49:24.218Z,1026.00
2023-05-09T12:50:24.184Z,1128.00
2023-05-09T12:51:24.175Z,1107.00
2023-05-09T12:52:24.210Z,1155.00
2023-05-09T12:53:24.276Z,1145.00
2023-05-09T12:54:24.281Z,1144.00
2023-05-09T12:55:24.319Z,1099.00
2023-05-09T12:56:24.407Z,1132.00
2023-05-09T12:57:24.433Z,1100.00
2023-05-09T12:58:24.470Z,1088.00
2023-05-09T12:59:24.553Z,1122.00
2023-05-09T13:00:24.571Z,1035.00
2023-05-09T13:01:24.804Z,1069.00
2023-05-09T13:02:24.801Z,1056.00
2023-05-09T13:03:24.857Z,1063.00
2023-05-09T13:04:24.758Z,1066.00
2023-05-09T13:05:24.829Z,1048.00
2023-05-09T13:06:24.853Z,995.00
2023-05-09T13:07:24.899Z,852.00
2023-05-09T13:08:24.946Z,891.00
2023-05-09T13:09:25.009Z,896.00
2023-05-09T13:10:25.029Z,878.00
2023-05-09T13:11:25.063Z,874.00
2023-05-09T13:12:25.210Z,848.00
2023-05-09T13:13:25.251Z,889.00
2023-05-09T13:14:25.244Z,888.00
2023-05-09T13:15:25.411Z,909.00
2023-05-09T13:16:25.425Z,913.00
2023-05-09T13:17:25.525Z,907.00
2023-05-09T13:18:25.457Z,890.00
2023-05-09T13:19:25.466Z,898.00
2023-05-09T13:20:25.542Z,901.00
2023-05-09T13:21:25.564Z,877.00
2023-05-09T13:22:25.593Z,876.00
2023-05-09T13:23:25.659Z,882.00
2023-05-09T13:24:25.773Z,890.00
2023-05-09T13:25:25.724Z,863.00
2023-05-09T13:26:25.804Z,829.00
2023-05-09T13:27:25.855Z,810.00
2023-05-09T13:28:25.896Z,860.00
2023-05-09T13:29:25.973Z,896.00
2023-05-09T13:30:25.968Z,885.00
2023-05-09T13:31:26.058Z,862.00
2023-05-09T13:32:26.134Z,879.00
2023-05-09T13:33:26.813Z,837.00
2023-05-09T13:34:26.115Z,786.00
2023-05-09T13:35:26.166Z,798.00
2023-05-09T13:36:26.201Z,819.00
2023-05-09T13:37:26.258Z,778.00
2023-05-09T13:38:26.314Z,754.00
2023-05-09T13:39:26.321Z,765.00
2023-05-09T13:40:26.385Z,761.00
2023-05-09T13:41:26.406Z,744.00
2023-05-09T13:42:26.490Z,735.00
2023-05-09T13:43:26.486Z,729.00
2023-05-09T13:44:26.527Z,754.00
2023-05-09T13:45:26.593Z,720.00
2023-05-09T13:46:26.685Z,757.00
2023-05-09T13:47:26.657Z,775.00
2023-05-09T13:48:26.654Z,734.00
2023-05-09T13:49:26.767Z,762.00
2023-05-09T13:50:26.701Z,748.00
2023-05-09T13:51:26.740Z,714.00
2023-05-09T13:52:26.773Z,656.00
2023-05-09T13:53:26.777Z,649.00
2023-05-09T13:54:26.837Z,675.00
2023-05-09T13:55:26.813Z,657.00
2023-05-09T13:56:26.835Z,660.00
2023-05-09T13:57:26.857Z,651.00
2023-05-09T13:58:26.884Z,699.00
2023-05-09T13:59:26.952Z,702.00
2023-05-09T14:00:26.911Z,682.00
2023-05-09T14:01:27.026Z,697.00
2023-05-09T14:02:27.073Z,695.00
2023-05-09T14:03:27.036Z,628.00
2023-05-09T14:04:26.999Z,654.00
2023-05-09T14:05:27.121Z,653.00
2023-05-09T14:06:27.066Z,666.00
2023-05-09T14:07:27.104Z,659.00
2023-05-09T14:08:27.143Z,764.00
2023-05-09T14:09:27.128Z,757.00
2023-05-09T14:10:27.214Z,735.00
2023-05-09T14:11:27.174Z,809.00
2023-05-09T14:12:27.194Z,906.00
2023-05-09T14:13:27.321Z,943.00
2023-05-09T14:14:27.279Z,983.00
2023-05-09T14:15:27.238Z,1106.00
2023-05-09T14:16:27.278Z,1154.00
2023-05-09T14:17:27.322Z,1208.00
2023-05-09T14:18:27.365Z,1219.00
2023-05-09T14:19:27.366Z,1257.00
2023-05-09T14:20:27.399Z,1259.00
2023-05-09T14:21:27.492Z,1288.00
2023-05-09T14:22:27.376Z,1308.00
2023-05-09T14:23:27.413Z,1332.00
2023-05-09T14:24:27.409Z,1343.00
2023-05-09T14:25:27.456Z,1348.00
2023-05-09T14:26:27.460Z,1371.00
2023-05-09T14:27:27.425Z,1381.00
2023-05-09T14:28:27.494Z,1386.00
2023-05-09T14:29:27.462Z,1387.00
2023-05-09T14:30:27.480Z,1408.00
2023-05-09T14:31:27.444Z,1451.00
2023-05-09T14:32:27.418Z,1440.00
2023-05-09T14:33:27.448Z,1454.00
2023-05-09T14:34:27.456Z,1487.00
2023-05-09T14:35:27.559Z,1494.00
2023-05-09T14:36:27.411Z,1513.00
2023-05-09T14:37:27.470Z,1516.00
2023-05-09T14:38:27.446Z,1538.00
2023-05-09T14:39:27.445Z,1569.00
2023-05-09T14:40:27.472Z,1575.00
2023-05-09T14:41:27.426Z,1577.00
2023-05-09T14:42:27.450Z,1604.00
2023-05-09T14:43:27.461Z,1620.00
2023-05-09T14:44:27.486Z,1646.00
2023-05-09T14:45:27.556Z,1678.00
2023-05-09T14:46:27.484Z,1694.00
2023-05-09T14:47:27.564Z,1714.00
2023-05-09T14:48:27.520Z,1732.00
2023-05-09T14:49:27.567Z,1749.00
2023-05-09T14:50:27.594Z,1758.00
2023-05-09T14:51:27.618Z,1770.00
2023-05-09T14:52:27.641Z,1757.00
2023-05-09T14:53:27.788Z,1774.00
2023-05-09T14:54:27.754Z,1781.00
2023-05-09T14:55:27.780Z,1789.00
2023-05-09T14:56:27.827Z,1778.00
2023-05-09T14:57:27.933Z,1805.00
2023-05-09T14:58:27.903Z,1799.00
2023-05-09T14:59:27.920Z,1807.00
2023-05-09T15:00:28.509Z,1807.00
2023-05-09T15:01:28.084Z,1817.00
2023-05-09T15:02:28.094Z,1811.00
2023-05-09T15:03:28.160Z,1819.00
2023-05-09T15:04:28.302Z,1817.00
2023-05-09T15:05:28.346Z,1821.00
2023-05-09T15:06:28.292Z,1827.00
2023-05-09T15:07:28.388Z,1828.00
2023-05-09T15:08:28.404Z,1816.00
2023-05-09T15:09:28.534Z,1835.00
2023-05-09T15:10:28.532Z,1819.00
2023-05-09T15:11:33.365Z,1820.00
2023-05-09T15:12:29.553Z,1821.00
2023-05-09T15:13:28.575Z,1824.00
2023-05-09T15:14:28.561Z,1831.00
2023-05-09T15:15:28.533Z,1831.00
2023-05-09T15:16:28.598Z,1838.00
2023-05-09T15:17:28.518Z,1836.00
2023-05-09T15:18:28.592Z,1843.00
2023-05-09T15:19:28.520Z,1843.00
2023-05-09T15:20:28.520Z,1829.00
2023-05-09T15:21:28.605Z,1836.00
2023-05-09T15:22:28.652Z,1828.00
2023-05-09T15:23:28.800Z,1841.00
2023-05-09T15:24:28.770Z,1840.00
2023-05-09T15:25:28.960Z,1830.00
2023-05-09T15:26:28.882Z,1837.00
2023-05-09T15:27:28.959Z,1821.00
2023-05-09T15:28:29.025Z,1833.00
2023-05-09T15:29:29.079Z,1836.00
2023-05-09T15:30:29.135Z,1827.00
2023-05-09T15:31:29.287Z,1813.00
2023-05-09T15:32:29.267Z,1826.00
2023-05-09T15:33:29.351Z,1814.00
2023-05-09T15:34:29.392Z,1836.00
2023-05-09T15:35:29.455Z,1830.00
2023-05-09T15:36:29.550Z,1818.00
2023-05-09T15:37:29.567Z,1823.00
2023-05-09T15:38:29.636Z,1823.00
2023-05-09T15:39:29.710Z,1826.00
2023-05-09T15:40:29.742Z,1825.00
2023-05-09T15:41:29.899Z,1824.00
2023-05-09T15:42:29.882Z,1818.00
2023-05-09T15:43:29.967Z,1815.00
2023-05-09T15:44:29.999Z,1822.00
2023-05-09T15:45:30.159Z,1812.00
2023-05-09T15:46:30.220Z,1809.00
2023-05-09T15:47:30.234Z,1827.00
2023-05-09T15:48:30.269Z,1811.00
2023-05-09T15:49:30.297Z,1820.00
2023-05-09T15:50:30.379Z,1817.00
2023-05-09T15:51:30.486Z,1817.00
2023-05-09T15:52:30.564Z,1801.00
2023-05-09T15:53:30.580Z,1801.00
2023-05-09T15:54:30.764Z,1797.00
2023-05-09T15:55:30.698Z,1801.00
2023-05-09T15:56:30.795Z,1807.00
2023-05-09T15:57:30.879Z,1805.00
2023-05-09T15:58:30.872Z,1797.00
2023-05-09T15:59:30.933Z,1801.00
2023-05-09T16:00:30.969Z,1809.00
2023-05-09T16:01:31.751Z,1810.00
2023-05-09T16:02:31.155Z,1800.00
2023-05-09T16:03:31.268Z,1799.00
2023-05-09T16:04:31.213Z,1785.00
2023-05-09T16:05:31.329Z,1805.00
2023-05-09T16:06:31.321Z,1790.00
2023-05-09T16:07:33.279Z,1790.00
2023-05-09T16:08:31.599Z,1789.00
2023-05-09T16:09:31.650Z,1803.00
2023-05-09T16:10:31.756Z,1785.00
2023-05-09T16:11:31.768Z,1790.00
2023-05-09T16:12:31.842Z,1788.00
2023-05-09T16:13:34.246Z,1769.00
2023-05-09T16:14:31.945Z,1803.00
2023-05-09T16:15:31.920Z,1794.00
2023-05-09T16:16:31.980Z,1781.00
2023-05-09T16:17:31.890Z,1765.00
2023-05-09T16:18:31.865Z,1786.00
2023-05-09T16:19:33.176Z,1773.00
2023-05-09T16:20:31.892Z,1775.00
2023-05-09T16:21:31.885Z,1776.00
2023-05-09T16:22:31.824Z,1780.00
2023-05-09T16:23:31.890Z,1773.00
2023-05-09T16:24:31.849Z,1776.00
2023-05-09T16:26:31.810Z,1781.00
2023-05-09T16:27:31.812Z,1784.00
2023-05-09T16:28:31.797Z,1784.00
2023-05-09T16:29:31.876Z,1787.00
2023-05-09T16:30:31.764Z,1790.00
2023-05-09T16:31:33.900Z,1771.00
2023-05-09T16:32:31.799Z,1773.00
2023-05-09T16:33:31.733Z,1775.00
2023-05-09T16:34:31.764Z,1774.00
2023-05-09T16:35:31.757Z,1779.00
2023-05-09T16:36:31.740Z,1789.00
2023-05-09T16:37:33.529Z,1778.00
2023-05-09T16:38:31.728Z,1779.00
2023-05-09T16:39:31.729Z,1774.00
2023-05-09T16:40:31.686Z,1783.00
2023-05-09T16:41:31.722Z,1780.00
2023-05-09T16:42:31.697Z,1773.00
2023-05-09T16:43:31.690Z,1772.00
2023-05-09T16:44:31.692Z,1773.00
2023-05-09T16:45:31.823Z,1767.00
2023-05-09T16:46:31.720Z,1765.00
2023-05-09T16:47:31.802Z,1761.00
2023-05-09T16:48:31.699Z,1745.00
2023-05-09T16:49:31.639Z,1754.00
2023-05-09T16:50:31.637Z,1746.00
2023-05-09T16:51:31.652Z,1756.00
2023-05-09T16:52:31.636Z,1749.00
2023-05-09T16:53:31.642Z,1743.00
2023-05-09T16:54:31.605Z,1753.00
2023-05-09T16:55:31.601Z,1746.00
2023-05-09T16:56:31.598Z,1746.00
2023-05-09T16:57:31.615Z,1748.00
2023-05-09T16:58:31.587Z,1733.00
2023-05-09T16:59:31.573Z,1738.00
2023-05-09T17:00:31.578Z,1737.00
